createdAt,value
2018-10-01T00:04:49.133Z,4.93
2018-10-01T00:10:53.762Z,3.23
2018-10-01T00:16:58.400Z,4.13
2018-10-01T00:23:02.993Z,2.50
2018-10-01T00:29:07.692Z,3.20
2018-10-01T00:35:12.563Z,3.93
2018-10-01T00:41:17.242Z,3.20
2018-10-01T00:47:21.856Z,3.70
2018-10-01T00:53:26.462Z,3.50
2018-10-01T00:59:31.092Z,4.00
2018-10-01T01:05:35.755Z,3.20
2018-10-01T01:11:40.413Z,3.40
2018-10-01T01:17:45.078Z,3.63
2018-10-01T01:23:49.648Z,3.80
2018-10-01T01:29:54.270Z,2.90
2018-10-01T01:35:58.920Z,3.30
2018-10-01T01:42:03.515Z,3.50
2018-10-01T01:48:08.138Z,3.40
2018-10-01T01:54:13.576Z,3.43
2018-10-01T02:00:18.561Z,3.90
2018-10-01T02:06:23.256Z,3.70
2018-10-01T02:12:27.864Z,3.33
2018-10-01T02:18:32.451Z,3.30
2018-10-01T02:24:37.094Z,4.00
2018-10-01T02:30:42.066Z,3.63
2018-10-01T02:36:46.881Z,3.47
2018-10-01T02:42:51.790Z,3.37
2018-10-01T02:48:56.739Z,2.87
2018-10-01T02:55:01.675Z,2.73
2018-10-01T03:01:06.466Z,3.93
2018-10-01T03:07:11.064Z,3.80
2018-10-01T03:13:15.755Z,3.10
2018-10-01T03:19:20.377Z,3.73
2018-10-01T03:25:24.960Z,4.13
2018-10-01T03:31:29.562Z,3.70
2018-10-01T03:37:34.177Z,4.33
2018-10-01T03:43:38.823Z,3.97
2018-10-01T03:49:43.495Z,3.50
2018-10-01T03:55:48.143Z,3.77
2018-10-01T04:01:52.759Z,3.80
2018-10-01T04:07:57.342Z,3.37
2018-10-01T04:14:01.962Z,3.27
2018-10-01T04:20:06.664Z,3.97
2018-10-01T04:26:11.256Z,3.83
2018-10-01T04:32:15.888Z,3.70
2018-10-01T04:38:20.877Z,4.73
2018-10-01T04:44:25.516Z,4.20
2018-10-01T04:50:30.240Z,4.37
2018-10-01T04:56:35.172Z,5.33
2018-10-01T05:02:40.161Z,4.50
2018-10-01T05:08:44.792Z,6.37
2018-10-01T05:14:49.483Z,5.07
2018-10-01T05:20:54.137Z,4.30
2018-10-01T05:26:58.753Z,4.60
2018-10-01T05:33:03.405Z,4.47
2018-10-01T05:39:11.664Z,5.10
2018-10-01T05:45:16.365Z,3.60
2018-10-01T05:51:20.945Z,4.43
2018-10-01T05:57:25.583Z,5.80
2018-10-01T06:03:30.237Z,6.93
2018-10-01T06:09:34.860Z,6.53
2018-10-01T06:15:39.470Z,6.40
2018-10-01T06:21:44.150Z,6.33
2018-10-01T06:27:48.758Z,7.20
2018-10-01T06:33:53.404Z,7.10
2018-10-01T06:39:58.028Z,6.73
2018-10-01T06:46:02.671Z,6.53
2018-10-01T06:52:07.485Z,7.73
2018-10-01T06:58:12.124Z,7.87
2018-10-01T07:04:16.756Z,8.77
2018-10-01T07:10:21.335Z,9.20
2018-10-01T07:16:26.086Z,9.37
2018-10-01T07:22:30.730Z,9.73
2018-10-01T07:28:35.432Z,8.57
2018-10-01T07:34:40.322Z,10.17
2018-10-01T07:40:44.938Z,10.10
2018-10-01T07:46:49.573Z,9.27
2018-10-01T07:52:54.289Z,8.57
2018-10-01T07:58:58.913Z,9.30
2018-10-01T08:05:03.597Z,8.50
2018-10-01T08:11:08.568Z,9.33
2018-10-01T08:17:13.235Z,9.47
2018-10-01T08:23:17.870Z,8.27
2018-10-01T08:29:22.601Z,9.60
2018-10-01T08:35:27.169Z,8.30
2018-10-01T08:41:31.770Z,7.90
2018-10-01T08:47:36.517Z,6.23
2018-10-01T08:54:01.580Z,5.50
2018-10-01T09:00:06.494Z,5.40
2018-10-01T09:06:11.139Z,6.00
2018-10-01T09:12:16.381Z,5.70
2018-10-01T09:18:21.038Z,6.13
2018-10-01T09:24:25.678Z,4.47
2018-10-01T09:30:30.749Z,3.63
2018-10-01T09:36:35.421Z,4.07
2018-10-01T09:42:40.125Z,3.70
2018-10-01T09:48:45.117Z,4.07
2018-10-01T09:54:49.763Z,3.90
2018-10-01T10:00:59.551Z,3.17
2018-10-01T10:07:04.174Z,2.90
2018-10-01T10:13:08.830Z,2.57
2018-10-01T10:19:13.450Z,2.10
2018-10-01T10:25:18.089Z,2.50
2018-10-01T10:31:22.741Z,3.57
2018-10-01T10:37:27.346Z,1.87
2018-10-01T10:43:31.929Z,2.97
2018-10-01T10:49:36.580Z,4.13
2018-10-01T10:55:41.609Z,1.20
2018-10-01T11:01:46.244Z,1.67
2018-10-01T11:07:50.856Z,2.00
2018-10-01T11:13:55.567Z,2.10
2018-10-01T11:20:00.340Z,1.70
2018-10-01T11:26:04.840Z,1.70
2018-10-01T11:32:09.547Z,1.40
2018-10-01T11:38:14.169Z,1.57
2018-10-01T11:44:18.755Z,1.27
2018-10-01T11:50:23.338Z,1.53
2018-10-01T11:56:28.350Z,1.47
2018-10-01T12:02:32.912Z,1.03
2018-10-01T12:08:37.548Z,1.23
2018-10-01T12:14:42.175Z,1.30
2018-10-01T12:20:46.735Z,1.30
2018-10-01T12:26:51.395Z,1.30
2018-10-01T12:32:56.364Z,1.10
2018-10-01T12:39:01.036Z,1.63
2018-10-01T12:45:06.170Z,1.97
2018-10-01T12:51:10.753Z,1.70
2018-10-01T12:57:15.433Z,1.70
2018-10-01T13:03:20.436Z,1.30
2018-10-01T13:09:25.052Z,1.87
2018-10-01T13:15:30.024Z,1.47
2018-10-01T13:21:34.826Z,1.20
2018-10-01T13:27:39.499Z,1.10
2018-10-01T13:33:44.103Z,2.80
2018-10-01T13:39:48.689Z,2.20
2018-10-01T13:45:53.336Z,1.40
2018-10-01T13:51:58.027Z,1.37
2018-10-01T13:58:02.712Z,0.80
2018-10-01T14:04:07.332Z,1.10
2018-10-01T14:10:12.059Z,3.20
2018-10-01T14:16:16.906Z,2.13
2018-10-01T14:22:21.562Z,1.33
2018-10-01T14:28:26.463Z,1.40
2018-10-01T14:34:31.421Z,2.97
2018-10-01T14:40:36.592Z,4.03
2018-10-01T14:46:41.297Z,1.57
2018-10-01T14:52:45.978Z,1.23
2018-10-01T14:58:50.658Z,2.03
2018-10-01T15:04:55.270Z,1.50
2018-10-01T15:11:00.237Z,1.37
2018-10-01T15:17:05.230Z,1.80
2018-10-01T15:23:09.883Z,2.10
2018-10-01T15:29:14.732Z,2.40
2018-10-01T15:35:19.435Z,2.37
2018-10-01T15:41:24.010Z,1.63
2018-10-01T15:47:28.672Z,1.30
2018-10-01T15:53:33.302Z,1.33
2018-10-01T15:59:37.973Z,1.30
2018-10-01T16:05:42.585Z,1.20
2018-10-01T16:11:47.219Z,2.60
2018-10-01T16:17:51.877Z,1.30
2018-10-01T16:23:56.563Z,4.77
2018-10-01T16:30:01.678Z,1.50
2018-10-01T16:36:06.395Z,1.30
2018-10-01T16:42:11.116Z,1.20
2018-10-01T16:48:16.280Z,1.53
2018-10-01T16:54:20.922Z,2.07
2018-10-01T17:00:25.538Z,2.70
2018-10-01T17:06:31.052Z,3.57
2018-10-01T17:12:36.120Z,1.50
2018-10-01T17:18:41.252Z,1.43
2018-10-01T17:24:45.894Z,2.33
2018-10-01T17:30:50.627Z,4.93
2018-10-01T17:36:55.579Z,10.33
2018-10-01T17:43:00.535Z,3.50
2018-10-01T17:49:05.424Z,1.73
2018-10-01T17:55:10.008Z,1.40
2018-10-01T18:01:14.702Z,1.60
2018-10-01T18:07:19.306Z,2.40
2018-10-01T18:13:24.068Z,2.03
2018-10-01T18:19:29.256Z,2.10
2018-10-01T18:25:34.108Z,2.40
2018-10-01T18:31:38.859Z,7.40
2018-10-01T18:37:43.775Z,4.50
2018-10-01T18:43:48.748Z,2.40
2018-10-01T18:49:53.606Z,1.30
2018-10-01T18:55:58.239Z,13.07
2018-10-01T19:02:02.837Z,2.00
2018-10-01T19:08:07.479Z,5.57
2018-10-01T19:14:12.177Z,4.50
2018-10-01T19:20:16.877Z,10.17
2018-10-01T19:26:21.510Z,1.40
2018-10-01T19:32:26.187Z,1.40
2018-10-01T19:38:31.166Z,2.27
2018-10-01T19:44:35.770Z,2.87
2018-10-01T19:50:40.445Z,1.70
2018-10-01T19:56:45.204Z,2.70
2018-10-01T20:02:50.716Z,1.80
2018-10-01T20:08:55.761Z,1.87
2018-10-01T20:15:00.629Z,2.70
2018-10-01T20:21:05.914Z,2.70
2018-10-01T20:27:11.379Z,2.87
2018-10-01T20:33:16.322Z,2.30
2018-10-01T20:39:21.421Z,2.73
2018-10-01T20:45:26.502Z,2.53
2018-10-01T20:51:31.490Z,2.10
2018-10-01T20:57:36.416Z,1.60
2018-10-01T21:03:41.334Z,1.90
2018-10-01T21:09:47.073Z,2.90
2018-10-01T21:15:52.072Z,2.10
2018-10-01T21:21:57.031Z,2.17
2018-10-01T21:28:01.993Z,1.60
2018-10-01T21:34:07.112Z,3.80
2018-10-01T21:40:12.943Z,2.07
2018-10-01T21:46:17.599Z,2.33
2018-10-01T21:52:22.279Z,2.50
2018-10-01T21:58:28.398Z,2.50
2018-10-01T22:04:33.332Z,2.50
2018-10-01T22:10:38.249Z,1.70
2018-10-01T22:16:42.912Z,2.57
2018-10-01T22:22:47.807Z,2.47
2018-10-01T22:28:52.410Z,2.77
2018-10-01T22:34:57.025Z,2.40
2018-10-01T22:41:01.712Z,3.57
2018-10-01T22:47:06.658Z,2.63
2018-10-01T22:53:11.338Z,3.50
2018-10-01T22:59:15.964Z,4.03
2018-10-01T23:05:20.568Z,3.70
2018-10-01T23:11:25.261Z,4.17
2018-10-01T23:17:29.864Z,3.47
2018-10-01T23:23:34.533Z,3.67
2018-10-01T23:29:39.135Z,3.17
2018-10-01T23:35:43.796Z,3.87
2018-10-01T23:41:49.025Z,3.10
2018-10-01T23:47:53.988Z,3.57
2018-10-01T23:53:58.917Z,3.60
